createdAt,value
2023-02-14T00:04:19.297Z,6.32
2023-02-14T00:09:21.132Z,6.18
2023-02-14T00:14:41.302Z,6.53
2023-02-14T00:19:42.919Z,6.50
2023-02-14T00:24:44.697Z,5.50
2023-02-14T00:29:46.477Z,5.38
2023-02-14T00:34:48.093Z,6.28
2023-02-14T00:39:50.128Z,5.03
2023-02-14T00:44:51.739Z,5.20
2023-02-14T00:49:54.952Z,5.85
2023-02-14T00:54:56.764Z,5.63
2023-02-14T00:59:59.387Z,5.13
2023-02-14T01:05:01.882Z,4.90
2023-02-14T01:10:03.900Z,5.43
2023-02-14T01:15:05.801Z,5.28
2023-02-14T01:20:08.156Z,5.93
2023-02-14T01:25:10.130Z,5.95
2023-02-14T01:30:12.623Z,5.70
2023-02-14T01:35:15.872Z,5.40
2023-02-14T01:40:17.547Z,5.70
2023-02-14T01:45:22.303Z,6.20
2023-02-14T01:50:28.909Z,5.43
2023-02-14T01:55:33.849Z,5.55
2023-02-14T02:00:56.088Z,6.22
2023-02-14T02:06:13.886Z,6.35
2023-02-14T02:11:15.544Z,6.32
2023-02-14T02:16:35.455Z,6.70
2023-02-14T02:22:21.482Z,7.20
2023-02-14T02:27:35.399Z,7.55
2023-02-14T02:32:58.594Z,7.28
2023-02-14T02:38:45.065Z,7.85
2023-02-14T02:43:53.799Z,7.35
2023-02-14T02:54:09.775Z,8.60
2023-02-14T02:59:23.062Z,8.27
2023-02-14T03:04:53.224Z,8.57
2023-02-14T03:09:58.544Z,7.97
2023-02-14T03:15:36.256Z,8.10
2023-02-14T03:20:55.067Z,7.38
2023-02-14T03:26:08.930Z,7.60
2023-02-14T03:31:28.779Z,7.35
2023-02-14T03:36:56.573Z,8.85
2023-02-14T03:42:16.416Z,8.43
2023-02-14T03:47:23.265Z,8.20
2023-02-14T03:52:27.040Z,8.88
2023-02-14T03:57:47.741Z,8.90
2023-02-14T04:02:58.312Z,8.30
2023-02-14T04:07:59.928Z,9.40
2023-02-14T04:13:01.541Z,8.95
2023-02-14T04:18:21.837Z,9.68
2023-02-14T04:23:23.708Z,9.75
2023-02-14T04:28:25.319Z,9.70
2023-02-14T04:33:26.924Z,9.63
2023-02-14T04:38:28.590Z,10.00
2023-02-14T04:43:30.562Z,10.52
2023-02-14T04:48:32.365Z,11.75
2023-02-14T04:53:34.022Z,11.90
2023-02-14T04:58:36.815Z,13.30
2023-02-14T05:03:38.477Z,13.05
2023-02-14T05:08:40.117Z,13.82
2023-02-14T05:13:41.762Z,13.40
2023-02-14T05:18:43.570Z,15.43
2023-02-14T05:23:45.385Z,16.00
2023-02-14T05:28:47.152Z,16.50
2023-02-14T05:33:49.133Z,16.92
2023-02-14T05:38:50.749Z,15.68
2023-02-14T05:43:52.456Z,17.52
2023-02-14T05:48:54.253Z,17.35
2023-02-14T05:53:57.820Z,17.33
2023-02-14T05:58:59.477Z,16.77
2023-02-14T06:04:01.245Z,17.48
2023-02-14T06:09:03.001Z,16.20
2023-02-14T06:14:04.647Z,15.52
2023-02-14T06:19:06.277Z,15.85
2023-02-14T06:24:08.449Z,13.40
2023-02-14T06:29:10.192Z,13.48
2023-02-14T06:34:12.247Z,13.25
2023-02-14T06:39:13.909Z,11.48
2023-02-14T06:44:15.635Z,11.45
2023-02-14T06:49:18.369Z,11.13
2023-02-14T06:54:20.010Z,11.48
2023-02-14T06:59:22.133Z,11.65
2023-02-14T07:04:23.842Z,11.32
2023-02-14T07:09:25.508Z,11.88
2023-02-14T07:14:27.255Z,12.05
2023-02-14T07:19:28.946Z,11.35
2023-02-14T07:24:30.563Z,9.95
2023-02-14T07:29:32.159Z,10.77
2023-02-14T07:34:33.814Z,10.57
2023-02-14T07:39:35.696Z,10.88
2023-02-14T07:44:40.728Z,11.52
2023-02-14T07:49:42.680Z,11.70
2023-02-14T07:54:44.414Z,11.77
2023-02-14T07:59:46.243Z,18.10
2023-02-14T08:04:47.828Z,12.63
2023-02-14T08:09:49.622Z,12.52
2023-02-14T08:14:51.233Z,11.82
2023-02-14T08:19:52.989Z,11.85
2023-02-14T08:24:54.713Z,13.52
2023-02-14T08:29:56.570Z,15.07
2023-02-14T08:34:58.242Z,13.77
2023-02-14T08:39:59.904Z,15.48
2023-02-14T08:45:01.582Z,17.88
2023-02-14T08:50:06.104Z,18.83
2023-02-14T08:55:07.936Z,18.08
2023-02-14T09:00:11.698Z,17.85
2023-02-14T09:05:13.464Z,20.75
2023-02-14T09:10:15.517Z,18.45
2023-02-14T09:15:17.479Z,19.90
2023-02-14T09:20:19.471Z,17.05
2023-02-14T09:25:21.335Z,17.65
2023-02-14T09:30:23.228Z,18.17
2023-02-14T09:35:24.885Z,16.70
2023-02-14T09:40:26.627Z,15.70
2023-02-14T09:45:30.856Z,17.08
2023-02-14T09:50:42.280Z,17.75
2023-02-14T09:56:09.041Z,17.35
2023-02-14T10:01:19.315Z,17.85
2023-02-14T10:06:42.662Z,17.70
2023-02-14T10:11:46.351Z,16.80
2023-02-14T10:17:20.786Z,17.33
2023-02-14T10:22:31.022Z,18.08
2023-02-14T10:27:46.347Z,18.48
2023-02-14T10:33:02.329Z,19.02
2023-02-14T10:38:03.891Z,17.95
2023-02-14T10:43:16.291Z,19.85
2023-02-14T10:48:23.861Z,19.13
2023-02-14T10:53:55.963Z,17.42
2023-02-14T10:59:02.773Z,17.30
2023-02-14T11:04:08.576Z,20.30
2023-02-14T11:09:12.288Z,25.65
2023-02-14T11:14:22.101Z,19.35
2023-02-14T11:19:29.089Z,18.95
2023-02-14T11:24:30.853Z,19.25
2023-02-14T11:29:43.682Z,18.25
2023-02-14T11:34:52.807Z,17.85
2023-02-14T11:39:58.033Z,17.85
2023-02-14T11:44:59.783Z,17.38
2023-02-14T11:50:24.759Z,15.90
2023-02-14T11:55:33.715Z,16.33
2023-02-14T12:00:35.532Z,16.92
2023-02-14T12:05:46.955Z,18.25
2023-02-14T12:11:01.740Z,17.67
2023-02-14T12:16:03.936Z,16.90
2023-02-14T12:21:21.526Z,16.65
2023-02-14T12:26:54.472Z,16.33
2023-02-14T12:32:02.150Z,16.75
2023-02-14T12:37:28.107Z,17.70
2023-02-14T12:42:57.509Z,16.45
2023-02-14T12:48:22.895Z,16.27
2023-02-14T12:53:49.116Z,16.58
2023-02-14T12:59:01.657Z,17.10
2023-02-14T13:04:15.426Z,16.90
2023-02-14T13:09:27.507Z,22.05
2023-02-14T13:14:46.899Z,18.95
2023-02-14T13:25:21.751Z,17.85
2023-02-14T13:30:32.305Z,17.75
2023-02-14T13:35:34.836Z,16.25
2023-02-14T13:40:37.667Z,18.27
2023-02-14T13:45:52.098Z,18.38
2023-02-14T13:50:53.761Z,17.52
2023-02-14T13:55:55.982Z,14.95
2023-02-14T14:00:57.797Z,15.70
2023-02-14T14:06:11.156Z,16.80
2023-02-14T14:11:21.896Z,18.05
2023-02-14T14:21:27.927Z,22.00
2023-02-14T14:27:03.986Z,22.25
2023-02-14T14:32:21.647Z,26.33
2023-02-14T14:37:26.739Z,16.98
2023-02-14T14:42:40.742Z,50.75
2023-02-14T14:47:45.333Z,18.60
2023-02-14T14:52:59.376Z,42.80
2023-02-14T14:58:04.656Z,18.77
2023-02-14T15:03:14.856Z,25.45
2023-02-14T15:08:35.659Z,57.38
2023-02-14T15:13:51.060Z,19.30
2023-02-14T15:18:57.649Z,19.00
2023-02-14T15:24:02.023Z,18.92
2023-02-14T15:29:05.925Z,17.90
2023-02-14T15:34:08.159Z,17.73
2023-02-14T15:39:16.518Z,19.08
2023-02-14T15:44:20.564Z,18.63
2023-02-14T15:49:26.157Z,43.97
2023-02-14T15:54:41.736Z,20.10
2023-02-14T15:59:43.758Z,18.85
2023-02-14T16:04:45.785Z,21.90
2023-02-14T16:09:48.299Z,28.20
2023-02-14T16:15:15.093Z,21.83
2023-02-14T16:20:22.744Z,22.38
2023-02-14T16:25:24.621Z,21.87
2023-02-14T16:30:26.614Z,24.10
2023-02-14T16:35:29.571Z,29.90
2023-02-14T16:40:31.325Z,22.60
2023-02-14T16:45:32.997Z,26.90
2023-02-14T16:50:36.792Z,24.52
2023-02-14T16:55:40.459Z,21.10
2023-02-14T17:00:42.285Z,22.15
2023-02-14T17:05:44.185Z,23.35
2023-02-14T17:10:48.662Z,25.63
2023-02-14T17:15:50.939Z,24.58
2023-02-14T17:20:52.716Z,26.92
2023-02-14T17:25:54.512Z,26.65
2023-02-14T17:30:57.805Z,25.52
2023-02-14T17:36:11.508Z,65.15
2023-02-14T17:41:22.276Z,40.40
2023-02-14T17:46:23.925Z,52.92
2023-02-14T17:51:25.560Z,28.08
2023-02-14T17:56:27.178Z,23.40
2023-02-14T18:01:31.439Z,29.42
2023-02-14T18:06:33.565Z,22.73
2023-02-14T18:11:35.429Z,23.25
2023-02-14T18:16:39.124Z,28.98
2023-02-14T18:21:40.816Z,24.73
2023-02-14T18:26:43.010Z,22.92
2023-02-14T18:31:45.168Z,23.38
2023-02-14T18:36:48.017Z,22.75
2023-02-14T18:41:49.669Z,22.60
2023-02-14T18:46:51.247Z,21.70
2023-02-14T18:51:53.535Z,21.75
2023-02-14T18:56:55.136Z,21.35
2023-02-14T19:01:57.111Z,22.58
2023-02-14T19:06:59.623Z,21.60
2023-02-14T19:12:01.313Z,38.25
2023-02-14T19:17:04.411Z,24.38
2023-02-14T19:22:06.129Z,24.27
2023-02-14T19:27:07.921Z,23.10
2023-02-14T19:32:10.338Z,23.85
2023-02-14T19:37:13.098Z,24.30
2023-02-14T19:42:15.012Z,22.13
2023-02-14T19:47:29.018Z,22.65
2023-02-14T19:52:38.777Z,36.45
2023-02-14T19:57:41.120Z,33.92
2023-02-14T20:02:47.977Z,31.13
2023-02-14T20:07:51.907Z,29.10
2023-02-14T20:12:53.648Z,24.88
2023-02-14T20:17:55.619Z,22.25
2023-02-14T20:22:57.408Z,22.83
2023-02-14T20:27:58.981Z,31.58
2023-02-14T20:33:00.699Z,28.27
2023-02-14T20:38:02.903Z,35.20
2023-02-14T20:43:04.594Z,25.98
2023-02-14T20:48:08.061Z,26.67
2023-02-14T20:53:09.686Z,24.48
2023-02-14T20:58:11.636Z,26.13
2023-02-14T21:03:13.259Z,26.73
2023-02-14T21:08:15.328Z,24.35
2023-02-14T21:13:17.147Z,24.52
2023-02-14T21:18:19.092Z,25.63
2023-02-14T21:23:20.692Z,22.10
2023-02-14T21:28:22.374Z,24.77
2023-02-14T21:33:25.346Z,24.05
2023-02-14T21:38:27.928Z,23.98
2023-02-14T21:43:29.547Z,24.95
2023-02-14T21:48:50.242Z,25.63
2023-02-14T21:53:51.932Z,23.27
2023-02-14T21:58:55.447Z,26.08
2023-02-14T22:03:58.588Z,23.88
2023-02-14T22:09:00.633Z,24.42
2023-02-14T22:14:02.660Z,24.48
2023-02-14T22:19:05.423Z,26.48
2023-02-14T22:24:07.326Z,24.50
2023-02-14T22:29:12.238Z,28.58
2023-02-14T22:34:17.656Z,29.02
2023-02-14T22:39:19.452Z,25.38
2023-02-14T22:44:21.054Z,24.63
2023-02-14T22:49:22.646Z,23.40
2023-02-14T22:54:24.254Z,24.02
2023-02-14T22:59:28.279Z,24.40
2023-02-14T23:04:30.100Z,25.25
2023-02-14T23:09:31.882Z,24.83
2023-02-14T23:14:52.119Z,25.83
2023-02-14T23:20:12.378Z,24.08
2023-02-14T23:25:13.989Z,24.92
2023-02-14T23:30:18.222Z,25.73
2023-02-14T23:35:19.867Z,26.40
2023-02-14T23:40:21.695Z,24.85
2023-02-14T23:45:35.676Z,26.10
2023-02-14T23:50:37.402Z,25.10
2023-02-14T23:55:39.450Z,26.83
